createdAt,value
2022-09-20T00:01:35.799Z,4.32
2022-09-20T00:04:08.149Z,5.38
2022-09-20T00:06:36.739Z,4.80
2022-09-20T00:09:06.222Z,5.15
2022-09-20T00:11:36.325Z,4.57
2022-09-20T00:14:08.615Z,5.28
2022-09-20T00:16:41.192Z,5.07
2022-09-20T00:19:19.903Z,4.85
2022-09-20T00:21:48.557Z,5.65
2022-09-20T00:24:17.090Z,5.60
2022-09-20T00:26:45.300Z,5.78
2022-09-20T00:29:13.776Z,5.57
2022-09-20T00:31:42.794Z,5.57
2022-09-20T00:34:30.417Z,5.65
2022-09-20T00:36:58.676Z,5.90
2022-09-20T00:39:27.175Z,5.85
2022-09-20T00:41:55.398Z,5.10
2022-09-20T00:44:49.242Z,5.95
2022-09-20T00:47:27.157Z,5.40
2022-09-20T00:50:05.036Z,6.38
2022-09-20T00:52:33.763Z,5.85
2022-09-20T00:55:04.637Z,6.22
2022-09-20T00:57:35.305Z,6.40
2022-09-20T01:00:07.162Z,6.90
2022-09-20T01:02:38.874Z,5.80
2022-09-20T01:05:10.903Z,5.93
2022-09-20T01:07:40.022Z,5.85
2022-09-20T01:10:09.239Z,5.93
2022-09-20T01:12:40.612Z,5.88
2022-09-20T01:15:11.090Z,6.13
2022-09-20T01:17:45.605Z,4.93
2022-09-20T01:20:22.419Z,5.82
2022-09-20T01:23:09.458Z,4.82
2022-09-20T01:26:17.769Z,5.47
2022-09-20T01:28:50.190Z,4.88
2022-09-20T01:31:25.405Z,4.65
2022-09-20T01:33:59.747Z,4.68
2022-09-20T01:36:35.837Z,4.57
2022-09-20T01:39:13.342Z,4.55
2022-09-20T01:41:48.477Z,4.95
2022-09-20T01:44:26.859Z,4.78
2022-09-20T01:47:02.019Z,5.03
2022-09-20T01:49:42.209Z,4.88
2022-09-20T01:52:57.202Z,4.90
2022-09-20T01:55:50.618Z,4.43
2022-09-20T01:59:22.661Z,4.05
2022-09-20T02:02:09.944Z,4.53
2022-09-20T02:05:05.833Z,3.80
2022-09-20T02:08:07.145Z,3.80
2022-09-20T02:11:10.494Z,3.78
2022-09-20T02:14:05.826Z,3.03
2022-09-20T02:16:50.564Z,3.63
2022-09-20T02:19:35.553Z,3.13
2022-09-20T02:22:22.388Z,3.30
2022-09-20T02:25:03.397Z,3.03
2022-09-20T02:27:42.717Z,3.88
2022-09-20T02:30:24.124Z,3.17
2022-09-20T02:33:16.836Z,3.58
2022-09-20T02:36:11.237Z,2.95
2022-09-20T02:38:58.748Z,3.88
2022-09-20T02:42:04.170Z,3.10
2022-09-20T02:44:57.538Z,3.63
2022-09-20T02:47:34.145Z,3.20
2022-09-20T02:50:20.698Z,3.25
2022-09-20T02:53:07.326Z,3.10
2022-09-20T02:55:45.703Z,3.58
2022-09-20T02:58:35.068Z,3.47
2022-09-20T03:01:11.125Z,3.08
2022-09-20T03:03:51.892Z,2.65
2022-09-20T03:06:32.836Z,3.10
2022-09-20T03:09:12.699Z,3.55
2022-09-20T03:11:52.573Z,3.03
2022-09-20T03:14:27.619Z,2.83
2022-09-20T03:17:08.026Z,3.40
2022-09-20T03:19:52.542Z,3.22
2022-09-20T03:22:35.508Z,3.37
2022-09-20T03:25:36.938Z,2.65
2022-09-20T03:28:36.694Z,2.50
2022-09-20T03:31:18.908Z,2.47
2022-09-20T03:33:59.418Z,2.80
2022-09-20T03:36:48.611Z,2.30
2022-09-20T03:39:41.383Z,2.38
2022-09-20T03:42:19.697Z,3.15
2022-09-20T03:45:24.142Z,8.00
2022-09-20T03:48:21.383Z,2.13
2022-09-20T03:51:05.707Z,2.47
2022-09-20T03:54:24.409Z,2.30
2022-09-20T03:57:59.402Z,2.47
2022-09-20T04:00:46.380Z,1.88
2022-09-20T04:03:41.686Z,2.10
2022-09-20T04:06:42.329Z,2.00
2022-09-20T04:09:39.599Z,1.88
2022-09-20T04:12:18.978Z,2.15
2022-09-20T04:14:56.929Z,2.25
2022-09-20T04:17:40.418Z,1.63
2022-09-20T04:20:20.557Z,2.20
2022-09-20T04:22:52.503Z,2.10
2022-09-20T04:25:27.658Z,2.22
2022-09-20T04:28:01.626Z,4.07
2022-09-20T04:30:38.984Z,2.00
2022-09-20T04:33:20.755Z,4.43
2022-09-20T04:36:17.272Z,2.33
2022-09-20T04:38:49.702Z,2.42
2022-09-20T04:41:37.892Z,2.28
2022-09-20T04:44:49.374Z,1.95
2022-09-20T04:48:00.310Z,1.70
2022-09-20T04:51:06.738Z,2.13
2022-09-20T04:54:16.407Z,2.22
2022-09-20T04:57:12.904Z,2.40
2022-09-20T05:00:00.988Z,2.13
2022-09-20T05:03:11.916Z,2.85
2022-09-20T05:06:08.521Z,1.95
2022-09-20T05:09:15.886Z,2.75
2022-09-20T05:12:49.279Z,2.20
2022-09-20T05:15:39.324Z,2.20
2022-09-20T05:18:33.029Z,3.38
2022-09-20T05:21:31.295Z,3.50
2022-09-20T05:24:48.735Z,2.95
2022-09-20T05:27:36.983Z,2.50
2022-09-20T05:30:12.130Z,2.53
2022-09-20T05:32:47.285Z,2.65
2022-09-20T05:35:24.088Z,3.15
2022-09-20T05:38:02.907Z,2.85
2022-09-20T05:40:39.858Z,2.85
2022-09-20T05:43:12.583Z,2.53
2022-09-20T05:45:55.817Z,2.28
2022-09-20T05:48:35.948Z,3.45
2022-09-20T05:51:15.291Z,2.65
2022-09-20T05:54:05.160Z,3.95
2022-09-20T05:56:46.853Z,2.90
2022-09-20T05:59:44.853Z,3.25
2022-09-20T06:02:29.570Z,2.85
2022-09-20T06:05:06.125Z,2.80
2022-09-20T06:07:57.641Z,3.25
2022-09-20T06:10:48.452Z,3.22
2022-09-20T06:13:36.321Z,2.83
2022-09-20T06:16:07.365Z,4.35
2022-09-20T06:18:44.460Z,3.10
2022-09-20T06:21:26.166Z,2.83
2022-09-20T06:23:59.888Z,2.35
2022-09-20T06:26:36.785Z,3.60
2022-09-20T06:29:08.246Z,2.47
2022-09-20T06:31:36.768Z,2.67
2022-09-20T06:34:09.920Z,2.80
2022-09-20T06:36:58.598Z,2.40
2022-09-20T06:39:55.330Z,2.58
2022-09-20T06:42:27.331Z,3.53
2022-09-20T06:44:56.473Z,2.80
2022-09-20T06:47:26.861Z,2.33
2022-09-20T06:49:55.530Z,3.20
2022-09-20T06:52:24.477Z,2.92
2022-09-20T06:54:56.073Z,3.10
2022-09-20T06:57:32.430Z,3.00
2022-09-20T07:00:00.688Z,3.30
2022-09-20T07:02:29.008Z,4.30
2022-09-20T07:04:59.166Z,2.75
2022-09-20T07:07:27.627Z,2.92
2022-09-20T07:09:55.869Z,3.17
2022-09-20T07:12:25.599Z,2.80
2022-09-20T07:14:54.368Z,2.88
2022-09-20T07:17:22.605Z,3.40
2022-09-20T07:19:51.005Z,3.25
2022-09-20T07:22:19.359Z,3.10
2022-09-20T07:24:48.239Z,3.70
2022-09-20T07:27:17.382Z,3.10
2022-09-20T07:29:47.603Z,3.60
2022-09-20T07:32:17.847Z,3.58
2022-09-20T07:34:46.369Z,2.97
2022-09-20T07:37:14.885Z,3.15
2022-09-20T07:39:43.227Z,3.38
2022-09-20T07:42:11.489Z,2.92
2022-09-20T07:44:43.405Z,3.35
2022-09-20T07:50:00.504Z,3.47
2022-09-20T07:52:28.972Z,3.00
2022-09-20T07:54:57.512Z,3.10
2022-09-20T07:57:26.331Z,3.40
2022-09-20T07:59:54.611Z,3.50
2022-09-20T08:02:24.253Z,3.30
2022-09-20T08:04:52.649Z,3.80
2022-09-20T08:07:21.247Z,3.38
2022-09-20T08:09:50.544Z,2.90
2022-09-20T08:15:12.011Z,2.92
2022-09-20T08:17:41.917Z,2.70
2022-09-20T08:20:10.966Z,2.97
2022-09-20T08:22:41.979Z,2.50
2022-09-20T08:25:10.995Z,2.60
2022-09-20T08:27:39.349Z,2.90
2022-09-20T08:30:09.638Z,2.10
2022-09-20T08:32:41.291Z,2.03
2022-09-20T08:35:11.756Z,2.08
2022-09-20T08:37:40.185Z,2.10
2022-09-20T08:40:10.877Z,2.33
2022-09-20T08:42:44.422Z,2.28
2022-09-20T08:45:34.513Z,2.30
2022-09-20T08:48:08.560Z,2.65
2022-09-20T08:50:38.252Z,2.80
2022-09-20T08:53:06.844Z,2.40
2022-09-20T08:55:39.477Z,2.60
2022-09-20T08:58:12.118Z,3.00
2022-09-20T09:00:42.031Z,2.53
2022-09-20T09:03:16.959Z,2.38
2022-09-20T09:08:18.563Z,3.58
2022-09-20T09:10:54.058Z,2.30
2022-09-20T09:13:28.615Z,2.47
2022-09-20T09:16:01.097Z,2.08
2022-09-20T09:18:36.131Z,2.55
2022-09-20T09:21:05.998Z,4.57
2022-09-20T09:23:42.340Z,2.05
2022-09-20T09:26:21.233Z,2.10
2022-09-20T09:29:10.506Z,2.05
2022-09-20T09:31:39.603Z,2.33
2022-09-20T09:34:26.058Z,2.13
2022-09-20T09:36:55.349Z,2.08
2022-09-20T09:39:29.543Z,2.38
2022-09-20T09:42:01.147Z,2.50
2022-09-20T09:44:32.886Z,2.17
2022-09-20T09:47:01.994Z,2.22
2022-09-20T09:49:36.100Z,2.00
2022-09-20T09:52:14.833Z,1.60
2022-09-20T09:54:48.958Z,1.95
2022-09-20T09:57:39.974Z,2.28
2022-09-20T10:00:20.811Z,4.90
2022-09-20T10:03:12.637Z,3.95
2022-09-20T10:05:55.079Z,2.53
2022-09-20T10:08:35.296Z,2.10
2022-09-20T10:11:18.120Z,2.33
2022-09-20T10:13:59.351Z,1.75
2022-09-20T10:16:39.660Z,2.53
2022-09-20T10:19:19.467Z,1.92
2022-09-20T10:22:01.214Z,2.10
2022-09-20T10:24:42.632Z,1.63
2022-09-20T10:27:36.810Z,1.75
2022-09-20T10:30:12.856Z,1.98
2022-09-20T10:33:01.631Z,2.17
2022-09-20T10:35:52.525Z,1.65
2022-09-20T10:38:26.740Z,2.05
2022-09-20T10:41:31.795Z,2.15
2022-09-20T10:44:18.371Z,2.23
2022-09-20T10:46:55.660Z,2.25
2022-09-20T10:49:34.344Z,2.15
2022-09-20T10:52:34.510Z,2.05
2022-09-20T10:55:25.557Z,2.00
2022-09-20T10:58:46.570Z,2.30
2022-09-20T11:01:24.021Z,2.05
2022-09-20T11:04:15.722Z,2.15
2022-09-20T11:06:54.079Z,1.92
2022-09-20T11:09:26.696Z,2.03
2022-09-20T11:12:04.627Z,2.35
2022-09-20T11:14:38.650Z,1.63
2022-09-20T11:17:15.833Z,2.22
2022-09-20T11:19:55.379Z,1.73
2022-09-20T11:22:31.650Z,2.25
2022-09-20T11:25:07.598Z,1.88
2022-09-20T11:27:42.648Z,1.60
2022-09-20T11:30:19.134Z,2.38
2022-09-20T11:32:53.021Z,2.03
2022-09-20T11:35:31.116Z,2.10
2022-09-20T11:38:11.239Z,2.10
2022-09-20T11:40:46.832Z,2.40
2022-09-20T11:43:18.337Z,2.15
2022-09-20T11:45:52.243Z,1.80
2022-09-20T11:48:27.301Z,2.67
2022-09-20T11:52:04.106Z,1.90
2022-09-20T11:55:14.878Z,1.58
2022-09-20T11:57:43.474Z,1.73
2022-09-20T12:00:13.916Z,1.88
2022-09-20T12:02:50.329Z,2.08
2022-09-20T12:05:30.395Z,1.65
2022-09-20T12:08:01.313Z,1.75
2022-09-20T12:10:34.164Z,1.77
2022-09-20T12:13:06.558Z,1.90
2022-09-20T12:15:39.841Z,1.73
2022-09-20T12:18:53.545Z,1.80
2022-09-20T12:21:23.532Z,1.17
2022-09-20T12:24:23.558Z,1.45
2022-09-20T12:26:58.121Z,1.52
2022-09-20T12:30:07.406Z,1.45
2022-09-20T12:32:47.938Z,1.70
2022-09-20T12:36:00.571Z,1.80
2022-09-20T12:38:50.593Z,1.50
2022-09-20T12:41:28.342Z,2.00
2022-09-20T12:44:06.465Z,1.70
2022-09-20T12:46:42.027Z,1.83
2022-09-20T12:49:59.947Z,1.92
2022-09-20T12:52:53.595Z,1.30
2022-09-20T12:55:45.830Z,1.70
2022-09-20T12:58:34.882Z,1.48
2022-09-20T13:01:36.872Z,2.05
2022-09-20T13:04:56.221Z,2.10
2022-09-20T13:07:43.958Z,1.58
2022-09-20T13:10:26.287Z,1.95
2022-09-20T13:13:02.321Z,2.00
2022-09-20T13:15:33.047Z,2.97
2022-09-20T13:18:03.399Z,1.90
2022-09-20T13:20:35.566Z,2.00
2022-09-20T13:23:06.315Z,1.90
2022-09-20T13:25:35.803Z,1.98
2022-09-20T13:28:11.097Z,2.08
2022-09-20T13:30:41.985Z,1.70
2022-09-20T13:33:22.392Z,2.38
2022-09-20T13:35:58.635Z,2.03
2022-09-20T13:38:31.708Z,1.70
2022-09-20T13:41:06.308Z,2.03
2022-09-20T13:43:39.150Z,2.72
2022-09-20T13:46:16.998Z,2.80
2022-09-20T13:48:48.249Z,2.88
2022-09-20T13:51:24.570Z,2.10
2022-09-20T13:53:53.031Z,1.73
2022-09-20T13:56:25.458Z,2.58
2022-09-20T13:58:54.508Z,2.30
2022-09-20T14:01:28.665Z,2.67
2022-09-20T14:04:57.790Z,1.92
2022-09-20T14:07:28.109Z,1.98
2022-09-20T14:09:58.833Z,1.98
2022-09-20T14:12:28.776Z,1.95
2022-09-20T14:14:57.608Z,2.10
2022-09-20T14:17:26.799Z,1.60
2022-09-20T14:19:57.695Z,2.13
2022-09-20T14:22:29.242Z,1.42
2022-09-20T14:25:01.425Z,1.70
2022-09-20T14:27:31.273Z,1.80
2022-09-20T14:30:00.140Z,1.42
2022-09-20T14:32:39.746Z,1.77
2022-09-20T14:35:17.723Z,1.63
2022-09-20T14:37:49.988Z,1.60
2022-09-20T14:40:24.220Z,1.60
2022-09-20T14:42:58.039Z,1.63
2022-09-20T14:45:31.226Z,2.38
2022-09-20T14:48:10.339Z,2.88
2022-09-20T14:50:43.232Z,2.35
2022-09-20T14:53:27.731Z,1.55
2022-09-20T14:56:08.937Z,1.90
2022-09-20T14:59:20.711Z,2.00
2022-09-20T15:02:00.774Z,1.95
2022-09-20T15:04:29.593Z,2.20
2022-09-20T15:07:03.267Z,1.48
2022-09-20T15:09:31.653Z,2.00
2022-09-20T15:12:05.213Z,1.92
2022-09-20T15:14:37.660Z,2.40
2022-09-20T15:17:06.888Z,1.60
2022-09-20T15:19:35.182Z,1.90
2022-09-20T15:22:05.328Z,1.60
2022-09-20T15:24:33.652Z,1.17
2022-09-20T15:27:01.934Z,1.52
2022-09-20T15:29:30.710Z,1.30
2022-09-20T15:31:59.486Z,1.27
2022-09-20T15:34:27.967Z,1.58
2022-09-20T15:36:56.472Z,1.63
2022-09-20T15:39:26.640Z,1.40
2022-09-20T15:41:55.392Z,1.73
2022-09-20T15:44:24.532Z,2.00
2022-09-20T15:46:53.251Z,2.17
2022-09-20T15:49:22.294Z,1.75
2022-09-20T15:51:50.556Z,2.25
2022-09-20T15:54:19.098Z,2.70
2022-09-20T15:56:48.837Z,1.50
2022-09-20T15:59:17.386Z,1.30
2022-09-20T16:01:48.089Z,1.52
2022-09-20T16:04:19.486Z,1.52
2022-09-20T16:06:50.014Z,1.48
2022-09-20T16:12:36.090Z,1.45
2022-09-20T16:18:31.517Z,1.80
2022-09-20T16:21:08.907Z,2.10
2022-09-20T16:23:38.893Z,2.85
2022-09-20T16:26:09.635Z,2.97
2022-09-20T16:28:40.573Z,1.80
2022-09-20T16:31:32.659Z,1.85
2022-09-20T16:34:02.539Z,1.40
2022-09-20T16:36:31.284Z,1.85
2022-09-20T16:39:00.003Z,1.67
2022-09-20T16:41:30.109Z,1.63
2022-09-20T16:43:59.914Z,1.77
2022-09-20T16:46:28.513Z,1.60
2022-09-20T16:49:00.788Z,1.90
2022-09-20T16:51:34.054Z,1.77
2022-09-20T16:54:04.359Z,1.73
2022-09-20T16:56:35.715Z,1.67
2022-09-20T16:59:07.457Z,3.05
2022-09-20T17:01:37.708Z,2.05
2022-09-20T17:04:06.827Z,1.80
2022-09-20T17:06:37.033Z,1.65
2022-09-20T17:09:06.912Z,9.40
2022-09-20T17:11:37.609Z,2.38
2022-09-20T17:14:08.712Z,2.28
2022-09-20T17:16:40.270Z,2.40
2022-09-20T17:19:11.064Z,2.60
2022-09-20T17:21:43.350Z,3.92
2022-09-20T17:24:11.678Z,4.25
2022-09-20T17:26:44.304Z,2.67
2022-09-20T17:29:16.860Z,3.00
2022-09-20T17:31:53.249Z,2.28
2022-09-20T17:34:23.046Z,2.65
2022-09-20T17:36:51.673Z,2.90
2022-09-20T17:39:20.138Z,2.50
2022-09-20T17:41:50.680Z,2.30
2022-09-20T17:44:20.638Z,2.30
2022-09-20T17:46:51.072Z,2.20
2022-09-20T17:49:21.617Z,2.55
2022-09-20T17:51:52.544Z,2.90
2022-09-20T17:54:21.903Z,2.80
2022-09-20T17:56:52.239Z,2.90
2022-09-20T17:59:22.497Z,3.33
2022-09-20T18:01:54.267Z,3.85
2022-09-20T18:04:24.290Z,2.85
2022-09-20T18:06:54.773Z,2.58
2022-09-20T18:09:25.430Z,3.05
2022-09-20T18:11:55.738Z,3.90
2022-09-20T18:14:27.292Z,3.72
2022-09-20T18:16:57.988Z,2.70
2022-09-20T18:19:32.653Z,3.28
2022-09-20T18:22:01.963Z,5.25
2022-09-20T18:24:31.746Z,3.83
2022-09-20T18:27:01.594Z,2.58
2022-09-20T18:29:36.523Z,2.63
2022-09-20T18:32:06.314Z,2.60
2022-09-20T18:34:34.668Z,2.53
2022-09-20T18:37:04.825Z,2.72
2022-09-20T18:39:34.773Z,2.80
2022-09-20T18:42:04.453Z,2.70
2022-09-20T18:44:34.327Z,2.60
2022-09-20T18:47:03.901Z,2.55
2022-09-20T18:49:34.355Z,5.65
2022-09-20T18:52:03.698Z,4.32
2022-09-20T18:54:33.430Z,5.32
2022-09-20T18:57:02.841Z,3.03
2022-09-20T18:59:33.077Z,2.80
2022-09-20T19:02:41.734Z,3.35
2022-09-20T19:05:19.052Z,2.92
2022-09-20T19:08:25.490Z,3.00
2022-09-20T19:10:57.576Z,2.90
2022-09-20T19:13:39.343Z,3.15
2022-09-20T19:16:19.258Z,2.80
2022-09-20T19:19:21.398Z,2.75
2022-09-20T19:21:59.851Z,3.17
2022-09-20T19:25:01.390Z,2.65
2022-09-20T19:27:30.399Z,4.50
2022-09-20T19:29:59.688Z,4.82
2022-09-20T19:32:31.181Z,4.20
2022-09-20T19:35:01.805Z,4.32
2022-09-20T19:37:38.902Z,4.03
2022-09-20T19:40:27.135Z,3.67
2022-09-20T19:43:13.177Z,3.60
2022-09-20T19:45:51.945Z,4.55
2022-09-20T19:48:33.913Z,4.20
2022-09-20T19:51:08.098Z,3.97
2022-09-20T19:53:37.322Z,4.35
2022-09-20T19:56:21.398Z,3.50
2022-09-20T19:58:53.024Z,3.65
2022-09-20T20:01:23.183Z,3.25
2022-09-20T20:03:55.218Z,3.38
2022-09-20T20:06:30.969Z,3.70
2022-09-20T20:09:09.250Z,3.80
2022-09-20T20:11:47.237Z,4.18
2022-09-20T20:14:24.387Z,3.88
2022-09-20T20:17:05.368Z,4.10
2022-09-20T20:20:10.612Z,4.85
2022-09-20T20:23:36.257Z,4.25
2022-09-20T20:26:10.137Z,4.90
2022-09-20T20:28:39.539Z,5.73
2022-09-20T20:31:12.515Z,5.78
2022-09-20T20:33:41.250Z,5.63
2022-09-20T20:36:12.340Z,3.80
2022-09-20T20:38:49.467Z,3.80
2022-09-20T20:41:21.458Z,3.80
2022-09-20T20:43:56.021Z,3.53
2022-09-20T20:46:25.056Z,3.95
2022-09-20T20:48:53.561Z,4.05
2022-09-20T20:51:24.160Z,4.05
2022-09-20T20:53:54.866Z,4.40
2022-09-20T20:56:26.249Z,4.20
2022-09-20T20:58:55.098Z,5.00
2022-09-20T21:01:25.959Z,4.57
2022-09-20T21:03:58.884Z,4.60
2022-09-20T21:06:31.859Z,4.43
2022-09-20T21:09:00.438Z,4.78
2022-09-20T21:11:32.406Z,4.60
2022-09-20T21:14:03.400Z,4.30
2022-09-20T21:16:35.035Z,4.75
2022-09-20T21:19:05.180Z,4.40
2022-09-20T21:21:37.396Z,4.20
2022-09-20T21:24:08.554Z,4.65
2022-09-20T21:26:38.481Z,4.88
2022-09-20T21:29:08.593Z,5.22
2022-09-20T21:31:39.110Z,4.50
2022-09-20T21:34:08.122Z,4.70
2022-09-20T21:36:41.479Z,4.03
2022-09-20T21:39:10.161Z,5.00
2022-09-20T21:41:40.559Z,5.00
2022-09-20T21:44:11.028Z,5.43
2022-09-20T21:46:41.091Z,5.75
2022-09-20T21:49:11.280Z,5.22
2022-09-20T21:51:42.754Z,5.03
2022-09-20T21:54:12.006Z,5.38
2022-09-20T21:56:41.784Z,5.88
2022-09-20T21:59:10.344Z,6.47
2022-09-20T22:01:41.416Z,5.68
2022-09-20T22:04:12.001Z,6.53
2022-09-20T22:06:43.569Z,5.63
2022-09-20T22:09:14.068Z,7.18
2022-09-20T22:11:44.795Z,7.30
2022-09-20T22:14:15.669Z,5.88
2022-09-20T22:16:45.784Z,5.20
2022-09-20T22:19:17.501Z,5.15
2022-09-20T22:21:49.472Z,5.03
2022-09-20T22:24:18.951Z,5.20
2022-09-20T22:26:49.666Z,5.80
2022-09-20T22:29:19.330Z,4.50
2022-09-20T22:31:50.070Z,5.47
2022-09-20T22:34:20.729Z,4.72
2022-09-20T22:36:52.014Z,4.38
2022-09-20T22:39:20.325Z,5.13
2022-09-20T22:41:49.301Z,4.78
2022-09-20T22:44:17.781Z,4.60
2022-09-20T22:46:46.207Z,4.13
2022-09-20T22:49:14.491Z,4.07
2022-09-20T22:51:42.860Z,4.60
2022-09-20T22:54:13.860Z,4.55
2022-09-20T22:56:42.654Z,4.20
2022-09-20T22:59:13.783Z,4.65
2022-09-20T23:01:43.892Z,4.75
2022-09-20T23:04:14.764Z,6.00
2022-09-20T23:06:46.897Z,6.93
2022-09-20T23:09:18.694Z,6.85
2022-09-20T23:11:48.118Z,7.85
2022-09-20T23:14:18.895Z,8.13
2022-09-20T23:16:48.439Z,7.38
2022-09-20T23:19:17.740Z,6.88
2022-09-20T23:21:46.562Z,7.03
2022-09-20T23:24:16.808Z,7.25
2022-09-20T23:26:45.611Z,6.57
2022-09-20T23:29:17.037Z,5.63
2022-09-20T23:31:47.774Z,4.65
2022-09-20T23:34:17.879Z,5.20
2022-09-20T23:36:47.536Z,4.85
2022-09-20T23:39:17.588Z,4.28
2022-09-20T23:41:50.638Z,4.90
2022-09-20T23:44:19.565Z,4.28
2022-09-20T23:46:48.032Z,4.45
2022-09-20T23:49:16.519Z,4.75
2022-09-20T23:51:44.804Z,4.28
2022-09-20T23:54:13.279Z,3.65
2022-09-20T23:56:42.902Z,4.05
2022-09-20T23:59:11.231Z,4.50
